Time;durP1;ratioP1;P1;durP2;ratioP2;P2;SDS_P1;SDS_P2;PMS_P1;PMS_P2;Temp;Humidity;BMP_temperature;BMP_pressure;BME280_temperature;BME280_humidity;BME280_pressure;Samples;Min_cycle;Max_cycle;Signal;HPM_P1;HPM_P2
2022/04/25 00:55:14;;;;;;;18.57;5.70;;;;;;;6.14;76.69;100508.63;1662456;84;80934;-86
2022/04/25 00:57:41;;;;;;;14.23;5.08;;;;;;;6.16;76.85;100500.43;1680624;83;21809;-88
2022/04/25 01:00:10;;;;;;;18.17;5.75;;;;;;;6.22;76.87;100498.05;1716233;82;21117;-88
2022/04/25 01:02:39;;;;;;;13.90;5.55;;;;;;;6.26;76.81;100501.67;1699677;82;21789;-87
2022/04/25 01:05:07;;;;;;;11.18;4.78;;;;;;;6.25;76.73;100495.07;1720843;82;21528;-88
2022/04/25 01:07:37;;;;;;;12.90;4.70;;;;;;;6.31;76.73;100498.82;1705076;82;21103;-87
2022/04/25 01:10:06;;;;;;;15.83;5.45;;;;;;;6.31;76.67;100497.52;1708133;81;21414;-88
2022/04/25 01:12:33;;;;;;;10.40;4.97;;;;;;;6.32;76.61;100494.05;1686155;83;22429;-87
2022/04/25 01:15:07;;;;;;;12.25;4.37;;;;;;;6.36;76.60;100500.29;1703280;83;21063;-88
2022/04/25 01:17:35;;;;;;;12.10;5.35;;;;;;;6.35;76.54;100487.64;1741371;80;21137;-88
2022/04/25 01:20:02;;;;;;;13.32;5.10;;;;;;;6.32;76.55;100488.83;1746031;80;21068;-87
2022/04/25 01:22:32;;;;;;;11.88;4.95;;;;;;;6.29;76.56;100490.03;1686291;80;21296;-88
2022/04/25 01:27:45;;;;;;;14.35;6.05;;;;;;;6.29;76.71;100487.42;1747574;80;22601;-88
2022/04/25 01:30:14;;;;;;;12.90;5.05;;;;;;;6.34;76.71;100487.16;1746720;80;21579;-88
2022/04/25 01:32:40;;;;;;;11.80;4.90;;;;;;;6.35;76.61;100491.56;1750345;80;21069;-88
2022/04/25 01:35:08;;;;;;;14.45;4.80;;;;;;;6.36;76.63;100489.83;1745186;80;21388;-88
2022/04/25 01:37:35;;;;;;;12.15;5.03;;;;;;;6.37;76.61;100485.09;1731741;80;21104;-88
2022/04/25 01:40:02;;;;;;;15.30;5.33;;;;;;;6.36;76.51;100480.69;1752447;79;23104;-88
2022/04/25 01:42:29;;;;;;;12.60;4.92;;;;;;;6.32;76.50;100483.59;1728346;80;21535;-88
2022/04/25 01:44:56;;;;;;;13.88;5.20;;;;;;;6.32;76.60;100482.29;1745969;79;21083;-89
2022/04/25 01:47:24;;;;;;;12.68;4.97;;;;;;;6.34;76.56;100478.43;1750251;80;21108;-88
2022/04/25 01:49:51;;;;;;;11.90;5.17;;;;;;;6.33;76.62;100478.86;1736540;80;21104;-88
2022/04/25 01:52:31;;;;;;;11.95;5.00;;;;;;;6.36;76.62;100477.67;1760479;80;21789;-88
2022/04/25 01:54:58;;;;;;;14.78;4.97;;;;;;;6.36;76.55;100476.77;1765439;80;21089;-88
2022/04/25 01:57:29;;;;;;;13.18;4.58;;;;;;;6.34;76.55;100472.78;1720188;80;21372;-88
2022/04/25 02:00:00;;;;;;;12.43;4.83;;;;;;;6.35;76.55;100482.84;1736528;80;21192;-88
2022/04/25 02:02:27;;;;;;;11.97;4.78;;;;;;;6.30;76.55;100466.97;1756719;80;21550;-88
2022/04/25 02:04:54;;;;;;;10.60;4.72;;;;;;;6.29;76.60;100469.12;1721535;80;21822;-88
2022/04/25 02:07:24;;;;;;;12.15;5.00;;;;;;;6.30;76.65;100468.70;1740674;80;21141;-88
2022/04/25 02:09:50;;;;;;;14.23;5.62;;;;;;;6.32;76.67;100473.14;1742580;80;21117;-88
2022/04/25 02:12:17;;;;;;;11.68;4.55;;;;;;;6.35;76.62;100468.47;1726131;80;22197;-88
2022/04/25 02:14:45;;;;;;;14.33;6.25;;;;;;;6.37;76.67;100467.67;1712811;82;21131;-88
2022/04/25 02:17:13;;;;;;;15.85;6.08;;;;;;;6.38;76.56;100468.16;1693224;83;21807;-88
2022/04/25 02:19:44;;;;;;;9.73;4.50;;;;;;;6.40;76.56;100466.49;1696959;82;21057;-89
2022/04/25 02:22:11;;;;;;;11.93;5.30;;;;;;;6.42;76.58;100471.36;1704232;82;21055;-89
2022/04/25 02:24:38;;;;;;;13.70;5.55;;;;;;;6.33;76.56;100451.41;1719627;82;21114;-88
2022/04/25 02:27:10;;;;;;;16.50;5.70;;;;;;;6.43;76.53;100459.17;1710293;82;21105;-88
2022/04/25 02:29:46;;;;;;;15.65;5.65;;;;;;;6.45;76.51;100464.46;1704220;83;21206;-88
2022/04/25 02:32:13;;;;;;;16.93;6.22;;;;;;;6.47;76.49;100468.90;1703853;82;21075;-88
2022/04/25 02:34:41;;;;;;;13.55;5.65;;;;;;;6.46;76.42;100459.69;1700730;83;22253;-88
2022/04/25 02:37:08;;;;;;;15.45;6.05;;;;;;;6.47;76.48;100457.56;1712324;82;21062;-88
2022/04/25 02:39:35;;;;;;;16.95;5.58;;;;;;;6.52;76.54;100455.59;1750716;80;21079;-88
2022/04/25 02:42:04;;;;;;;11.40;4.85;;;;;;;6.52;76.39;100453.40;1728008;80;21822;-88
2022/04/25 02:44:31;;;;;;;13.93;5.05;;;;;;;6.52;76.35;100457.32;1707945;82;21094;-88
2022/04/25 02:46:58;;;;;;;17.40;5.62;;;;;;;6.52;76.33;100452.97;1691672;82;21098;-88
2022/04/25 02:49:28;;;;;;;13.00;5.12;;;;;;;6.52;76.28;100451.66;1709149;82;21095;-89
2022/04/25 02:51:54;;;;;;;11.68;5.62;;;;;;;6.53;76.32;100460.00;1736925;80;21110;-86
2022/04/25 02:54:23;;;;;;;11.28;5.33;;;;;;;6.56;76.32;100453.98;1771177;80;21794;-88
2022/04/25 02:56:51;;;;;;;16.93;5.87;;;;;;;6.55;76.30;100458.33;1741607;80;21002;-88
2022/04/25 02:59:20;;;;;;;13.43;5.50;;;;;;;6.53;76.25;100455.16;1752909;80;21045;-88
2022/04/25 03:01:47;;;;;;;15.25;5.33;;;;;;;6.52;76.23;100452.09;1751561;80;21117;-88
2022/04/25 03:04:15;;;;;;;14.83;5.97;;;;;;;6.52;76.35;100453.40;1739233;81;21069;-88
2022/04/25 03:06:46;;;;;;;11.22;4.97;;;;;;;6.53;76.31;100452.16;1733657;80;21565;-87
2022/04/25 03:09:18;;;;;;;17.55;5.60;;;;;;;6.53;76.31;100448.23;1746793;80;21107;-87
2022/04/25 03:11:46;;;;;;;13.50;5.95;;;;;;;6.53;76.25;100448.23;1724775;80;21066;-86
2022/04/25 03:14:15;;;;;;;12.70;4.90;;;;;;;6.57;76.25;100449.23;1734443;80;21075;-88
2022/04/25 03:16:42;;;;;;;11.53;4.78;;;;;;;6.58;76.25;100454.92;1763757;80;21395;-87
2022/04/25 03:19:09;;;;;;;11.15;4.53;;;;;;;6.61;76.22;100453.73;1749624;80;22714;-88
2022/04/25 03:21:36;;;;;;;11.00;5.50;;;;;;;6.65;76.18;100450.81;1754205;80;21045;-88
2022/04/25 03:24:03;;;;;;;11.55;4.70;;;;;;;6.65;76.03;100453.00;1751055;80;21097;-87
2022/04/25 03:26:33;;;;;;;11.08;5.22;;;;;;;6.67;76.08;100448.72;1769560;80;21067;-87
2022/04/25 03:29:06;;;;;;;12.25;5.20;;;;;;;6.69;76.01;100454.89;1743001;80;21071;-88
2022/04/25 03:31:29;;;;;;;9.38;4.40;;;;;;;6.71;76.00;100448.41;1738750;80;21857;-87
2022/04/25 03:33:58;;;;;;;13.03;5.12;;;;;;;6.71;75.92;100453.22;1743696;80;21666;-87
2022/04/25 03:36:26;;;;;;;13.50;6.03;;;;;;;6.71;75.89;100454.52;1755960;80;21109;-87
2022/04/25 03:38:53;;;;;;;14.58;6.25;;;;;;;6.69;75.87;100442.23;1762238;80;21126;-87
2022/04/25 03:41:21;;;;;;;15.05;5.92;;;;;;;6.76;75.91;100448.16;1703864;82;21085;-88
2022/04/25 03:43:48;;;;;;;18.27;5.78;;;;;;;6.79;75.89;100453.09;1727289;80;21795;-88
2022/04/25 03:46:17;;;;;;;16.12;6.00;;;;;;;6.80;75.82;100452.23;1760146;80;21055;-87
2022/04/25 03:48:45;;;;;;;16.00;6.08;;;;;;;6.86;75.95;100448.06;1716645;82;21477;-88
2022/04/25 03:51:13;;;;;;;18.23;5.70;;;;;;;6.94;75.87;100451.83;1702607;83;21739;-88
2022/04/25 03:53:39;;;;;;;16.67;6.40;;;;;;;6.96;75.68;100447.53;1699800;83;21157;-87
2022/04/25 03:58:54;;;;;;;14.60;5.90;;;;;;;6.88;75.60;100455.13;1699913;82;21049;-89
2022/04/25 04:01:21;;;;;;;15.35;6.22;;;;;;;6.90;75.72;100463.03;1678685;83;21119;-89
2022/04/25 04:03:51;;;;;;;18.00;7.15;;;;;;;6.88;75.65;100459.47;1682509;83;22287;-88
2022/04/25 04:06:23;;;;;;;14.95;9.38;;;;;;;6.87;75.67;100462.52;1704508;82;21161;-88
2022/04/25 04:08:46;;;;;;;22.17;9.80;;;;;;;6.87;75.73;100457.67;1693972;83;22820;-87
2022/04/25 04:11:13;;;;;;;17.90;6.05;;;;;;;6.89;75.80;100452.08;1699609;82;21066;-89
2022/04/25 04:13:42;;;;;;;17.00;9.50;;;;;;;6.94;75.67;100456.63;1695763;83;21486;-88
2022/04/25 04:16:12;;;;;;;15.50;6.30;;;;;;;6.92;75.65;100462.66;1707265;82;21106;-88
2022/04/25 04:18:49;;;;;;;15.58;7.55;;;;;;;6.91;75.63;100463.09;1690270;82;21734;-89
2022/04/25 04:21:21;;;;;;;13.80;6.10;;;;;;;6.94;75.68;100463.60;1692269;82;21984;-88
2022/04/25 04:23:49;;;;;;;15.28;7.35;;;;;;;7.01;75.79;100464.30;1681752;83;21451;-89
2022/04/25 04:26:16;;;;;;;15.63;7.30;;;;;;;7.06;75.71;100467.05;1693572;82;21094;-88
2022/04/25 04:28:43;;;;;;;14.10;7.65;;;;;;;7.07;75.62;100460.57;1698743;81;21113;-91
2022/04/25 04:31:13;;;;;;;17.25;7.40;;;;;;;7.06;75.70;100462.73;1697405;83;21079;-90
2022/04/25 04:33:40;;;;;;;15.68;6.80;;;;;;;7.14;75.67;100462.99;1700906;82;21824;-90
2022/04/25 04:36:22;;;;;;;17.40;6.47;;;;;;;7.19;75.66;100465.36;1663951;83;21727;-89
2022/04/25 04:38:51;;;;;;;12.00;5.62;;;;;;;7.23;75.53;100467.23;1679515;83;21074;-89
2022/04/25 04:41:17;;;;;;;18.62;7.03;;;;;;;7.25;75.44;100470.79;1689643;82;21579;-89
2022/04/25 04:43:49;;;;;;;14.93;6.25;;;;;;;7.24;75.34;100469.42;1701853;82;21158;-89
2022/04/25 04:46:15;;;;;;;17.90;6.67;;;;;;;7.23;75.34;100465.92;1681021;83;21867;-88
2022/04/25 04:48:42;;;;;;;17.70;5.92;;;;;;;7.26;75.33;100468.63;1681087;82;21539;-87
2022/04/25 04:51:10;;;;;;;12.15;5.80;;;;;;;7.27;75.25;100469.11;1696098;82;21169;-87
2022/04/25 04:53:39;;;;;;;12.47;5.70;;;;;;;7.27;75.26;100469.11;1687806;83;21578;-88
2022/04/25 04:56:09;;;;;;;16.67;5.80;;;;;;;7.28;75.18;100473.52;1677667;83;21178;-89
2022/04/25 04:58:40;;;;;;;17.35;6.37;;;;;;;7.27;75.16;100475.66;1695797;83;23392;-87
2022/04/25 05:01:07;;;;;;;15.90;6.60;;;;;;;7.25;75.20;100477.34;1694707;83;21513;-87
2022/04/25 05:03:41;;;;;;;15.50;6.37;;;;;;;7.27;75.29;100476.09;1675520;82;21087;-87
2022/04/25 05:06:13;;;;;;;15.38;6.70;;;;;;;7.34;75.48;100475.46;1694507;83;21153;-88
2022/04/25 05:08:41;;;;;;;18.73;5.97;;;;;;;7.40;75.57;100475.66;1671643;83;21568;-88
2022/04/25 05:11:09;;;;;;;13.70;6.22;;;;;;;7.40;75.46;100479.58;1662955;83;23040;-88
2022/04/25 05:13:41;;;;;;;15.53;6.80;;;;;;;7.44;75.61;100488.00;1742782;80;21816;-88
2022/04/25 05:16:08;;;;;;;14.75;6.78;;;;;;;7.39;75.46;100489.57;1754649;80;21113;-88
2022/04/25 05:18:35;;;;;;;16.20;6.75;;;;;;;7.38;75.65;100484.77;1749325;80;21051;-88
2022/04/25 05:21:07;;;;;;;16.30;6.25;;;;;;;7.40;75.70;100487.44;1752108;80;21134;-88
2022/04/25 05:23:32;;;;;;;15.43;7.03;;;;;;;7.39;75.69;100486.95;1743036;80;21658;-89
2022/04/25 05:25:59;;;;;;;16.30;5.83;;;;;;;7.40;75.81;100487.44;1714583;80;21660;-89
2022/04/25 05:28:26;;;;;;;19.07;7.25;;;;;;;7.42;75.97;100500.59;1712573;79;21146;-89
2022/04/25 05:30:53;;;;;;;15.10;6.30;;;;;;;7.33;75.71;100499.84;1731499;80;21081;-89
2022/04/25 05:33:20;;;;;;;13.03;5.25;;;;;;;7.25;75.79;100490.42;1755063;80;21134;-89
2022/04/25 05:35:48;;;;;;;17.92;6.05;;;;;;;7.23;75.82;100499.96;1751244;80;21725;-90
2022/04/25 05:38:16;;;;;;;16.60;5.60;;;;;;;7.19;75.76;100495.03;1762511;79;21503;-89
2022/04/25 05:40:43;;;;;;;12.98;5.58;;;;;;;7.14;75.88;100494.41;1747539;79;21078;-89
2022/04/25 05:43:20;;;;;;;16.57;5.97;;;;;;;7.13;76.01;100485.67;1759471;80;21162;-90
2022/04/25 05:45:49;;;;;;;18.20;5.70;;;;;;;7.19;76.24;100494.16;1757865;80;21013;-89
2022/04/25 05:53:48;;;;;;;11.70;5.22;;;;;;;7.27;76.62;100496.60;1734166;82;21090;-89
2022/04/25 05:56:15;;;;;;;11.43;5.70;;;;;;;7.26;76.61;100501.78;1704755;82;21520;-89
2022/04/25 05:58:47;;;;;;;11.97;5.33;;;;;;;7.23;76.81;100505.20;1693476;82;21077;-89
2022/04/25 06:01:10;;;;;;;9.60;4.70;;;;;;;7.22;76.87;100499.90;1713476;82;21979;-90
2022/04/25 06:03:37;;;;;;;13.22;6.37;;;;;;;7.27;76.99;100504.45;1691166;83;21074;-89
2022/04/25 06:06:04;;;;;;;13.38;5.15;;;;;;;7.16;76.84;100488.37;1695818;82;21517;-89
2022/04/25 06:08:30;;;;;;;11.38;5.15;;;;;;;7.28;76.94;100503.63;1712148;82;21691;-90
2022/04/25 06:10:59;;;;;;;11.40;5.37;;;;;;;7.33;76.89;100511.63;1691112;83;21138;-90
2022/04/25 06:13:26;;;;;;;14.73;5.55;;;;;;;7.36;76.84;100507.82;1706162;82;22379;-90
2022/04/25 06:15:53;;;;;;;12.78;5.75;;;;;;;7.43;77.00;100505.84;1714225;82;21123;-90
2022/04/25 06:18:19;;;;;;;10.93;5.92;;;;;;;7.45;76.70;100510.75;1666635;84;21110;-89
2022/04/25 06:20:48;;;;;;;14.58;5.25;;;;;;;7.44;76.77;100515.50;1700134;83;21161;-90
2022/04/25 06:23:14;;;;;;;12.25;5.80;;;;;;;7.45;76.76;100513.77;1701272;83;21072;-90
2022/04/25 06:25:41;;;;;;;13.75;5.47;;;;;;;7.35;76.67;100492.94;1696436;83;21793;-89
2022/04/25 06:28:08;;;;;;;14.68;5.78;;;;;;;7.47;76.74;100519.55;1752025;80;21112;-89
2022/04/25 06:30:35;;;;;;;16.48;7.15;;;;;;;7.40;76.46;100524.98;1738070;80;21582;-89
2022/04/25 06:33:01;;;;;;;10.30;5.70;;;;;;;7.41;76.76;100512.77;1751076;79;21053;-89
2022/04/25 06:35:32;;;;;;;12.13;5.90;;;;;;;7.44;76.63;100516.81;1747034;80;21116;-89
2022/04/25 06:37:57;;;;;;;11.97;5.22;;;;;;;7.43;76.57;100512.83;1736511;80;22864;-89
2022/04/25 06:40:24;;;;;;;12.78;6.70;;;;;;;7.44;76.64;100514.63;1744077;80;21316;-89
2022/04/25 06:42:52;;;;;;;14.03;6.78;;;;;;;7.46;76.67;100515.56;1746967;80;21161;-90
2022/04/25 06:45:19;;;;;;;13.00;6.25;;;;;;;7.51;76.70;100516.19;1718265;80;21165;-90
2022/04/25 06:47:50;;;;;;;11.45;6.50;;;;;;;7.54;76.54;100512.77;1744452;80;21523;-90
2022/04/25 06:50:17;;;;;;;15.90;6.80;;;;;;;7.57;76.67;100515.50;1752435;80;21766;-90
2022/04/25 06:52:45;;;;;;;20.75;7.30;;;;;;;7.68;76.69;100514.55;1727922;81;21136;-89
2022/04/25 06:55:13;;;;;;;18.90;7.40;;;;;;;7.70;76.45;100518.99;1755772;80;21117;-89
2022/04/25 06:57:42;;;;;;;20.17;6.85;;;;;;;7.75;76.48;100520.44;1761582;80;21090;-89
2022/04/25 07:00:16;;;;;;;13.32;6.65;;;;;;;7.82;76.39;100516.30;1755055;80;20997;-89
2022/04/25 07:02:41;;;;;;;14.33;6.65;;;;;;;7.91;76.44;100516.59;1749407;80;22614;-90
2022/04/25 07:05:09;;;;;;;14.33;6.83;;;;;;;8.01;76.39;100512.53;1725060;81;21121;-89
2022/04/25 07:10:01;;;;;;;9.25;5.85;;;;;;;7.99;76.04;100517.72;1760006;80;20999;-90
2022/04/25 07:12:30;;;;;;;15.25;6.42;;;;;;;7.99;75.96;100517.72;1763592;80;21571;-89
2022/04/25 07:15:03;;;;;;;14.95;5.70;;;;;;;7.97;75.90;100528.58;1745798;80;22048;-89
2022/04/25 07:17:32;;;;;;;17.57;6.37;;;;;;;7.88;75.71;100515.18;1663536;83;21677;-91
2022/04/25 07:20:01;;;;;;;14.63;6.20;;;;;;;7.84;76.02;100514.62;1706660;83;21659;-89
2022/04/25 07:30:46;;;;;;;9.75;5.17;;;;;;;8.03;76.10;100520.90;1672562;84;21110;-88
2022/04/25 07:33:15;;;;;;;9.70;5.72;;;;;;;7.93;75.86;100497.45;1696080;82;21160;-88
2022/04/25 07:35:45;;;;;;;14.70;5.72;;;;;;;7.98;75.75;100526.02;1685486;83;21361;-89
2022/04/25 07:38:14;;;;;;;12.85;5.80;;;;;;;7.86;75.75;100519.05;1687497;83;21813;-89
2022/04/25 07:40:43;;;;;;;16.40;7.15;;;;;;;7.89;75.98;100532.70;1668697;83;21818;-89
2022/04/25 07:43:10;;;;;;;14.93;6.08;;;;;;;7.87;75.98;100531.33;1703546;82;21103;-89
2022/04/25 07:45:37;;;;;;;13.65;5.45;;;;;;;7.79;76.06;100529.78;1698718;83;21089;-87
2022/04/25 07:48:05;;;;;;;10.48;6.03;;;;;;;7.76;76.18;100532.28;1688275;83;21110;-88
2022/04/25 07:50:33;;;;;;;8.73;4.35;;;;;;;7.76;76.55;100537.52;1677809;83;21179;-86
2022/04/25 07:53:00;;;;;;;11.68;5.03;;;;;;;7.80;76.67;100538.52;1662257;84;21882;-88
2022/04/25 07:55:28;;;;;;;8.60;4.87;;;;;;;7.84;76.66;100532.96;1708379;82;21157;-88
2022/04/25 07:57:54;;;;;;;12.00;5.22;;;;;;;7.85;76.65;100537.38;1702616;82;21089;-88
2022/04/25 08:00:23;;;;;;;11.78;5.40;;;;;;;7.93;76.82;100535.45;1709344;82;21106;-89
2022/04/25 08:02:49;;;;;;;9.00;4.17;;;;;;;8.05;76.75;100541.92;1729294;82;21090;-88
2022/04/25 08:05:16;;;;;;;9.45;3.95;;;;;;;8.02;76.10;100540.54;1763356;80;21627;-88
2022/04/25 08:07:45;;;;;;;7.08;4.62;;;;;;;7.89;76.38;100541.44;1733531;80;21083;-89
2022/04/25 08:10:13;;;;;;;9.25;4.10;;;;;;;7.84;76.39;100548.68;1763984;80;21090;-89
2022/04/25 08:18:13;;;;;;;6.62;4.33;;;;;;;7.79;76.80;100552.05;1720337;81;21777;-89
2022/04/25 08:20:43;;;;;;;5.55;4.12;;;;;;;7.86;76.75;100552.23;1758538;80;21050;-89
2022/04/25 08:23:11;;;;;;;7.97;4.15;;;;;;;7.91;76.84;100552.86;1709678;82;21098;-89
2022/04/25 08:25:39;;;;;;;8.88;3.80;;;;;;;8.02;76.87;100547.97;1687100;81;21735;-89
2022/04/25 08:28:07;;;;;;;8.35;3.60;;;;;;;8.03;77.76;100548.86;1743034;80;21152;-88
2022/04/25 08:30:33;;;;;;;6.00;4.08;;;;;;;8.07;76.97;100555.57;1741976;80;21824;-88
2022/04/25 08:33:01;;;;;;;7.30;4.22;;;;;;;8.06;76.97;100561.64;1744522;80;21033;-89
2022/04/25 08:35:28;;;;;;;7.78;4.70;;;;;;;8.14;76.98;100555.33;1762999;80;21043;-89
2022/04/25 08:37:55;;;;;;;8.15;3.92;;;;;;;8.40;77.17;100565.32;1734188;80;21086;-90
2022/04/25 08:40:22;;;;;;;10.48;4.53;;;;;;;8.63;77.58;100554.66;1748410;80;21078;-89
2022/04/25 08:42:49;;;;;;;7.70;4.25;;;;;;;8.90;77.37;100558.10;1728242;81;21810;-89
2022/04/25 08:45:16;;;;;;;8.03;4.72;;;;;;;9.04;76.93;100559.80;1732166;82;21115;-89
2022/04/25 08:47:53;;;;;;;6.75;3.80;;;;;;;9.21;76.87;100556.75;1738073;81;21105;-89
2022/04/25 08:50:20;;;;;;;5.53;3.77;;;;;;;9.26;76.15;100564.34;1737994;81;21120;-89
2022/04/25 08:52:47;;;;;;;6.50;4.10;;;;;;;9.18;76.03;100568.07;1760790;80;21111;-89
2022/04/25 08:55:17;;;;;;;7.00;3.90;;;;;;;9.09;76.08;100564.76;1747795;80;21763;-90
2022/04/25 08:57:46;;;;;;;4.55;3.20;;;;;;;9.12;76.20;100578.38;1732434;81;21039;-89
2022/04/25 09:00:15;;;;;;;3.65;3.15;;;;;;;9.12;75.85;100575.76;1736704;79;21557;-89
2022/04/25 09:02:49;;;;;;;4.15;3.15;;;;;;;9.13;75.73;100569.24;1749636;80;21065;-90
2022/04/25 09:05:17;;;;;;;9.90;5.60;;;;;;;9.17;75.73;100570.22;1748449;80;21156;-89
2022/04/25 09:07:45;;;;;;;7.28;4.58;;;;;;;9.12;75.54;100562.23;1737792;80;21772;-89
2022/04/25 09:10:18;;;;;;;3.17;2.50;;;;;;;9.33;75.67;100583.37;1746266;80;21112;-88
2022/04/25 09:12:46;;;;;;;4.30;2.83;;;;;;;9.53;75.75;100572.97;1735818;80;21058;-90
2022/04/25 09:15:19;;;;;;;4.50;3.33;;;;;;;9.67;75.42;100575.95;1747136;80;21122;-89
2022/04/25 09:17:46;;;;;;;2.95;2.08;;;;;;;9.72;75.43;100581.30;1743324;80;21153;-89
2022/04/25 09:20:13;;;;;;;2.35;1.90;;;;;;;9.76;75.02;100580.96;1757778;80;21834;-89
2022/04/25 09:22:40;;;;;;;3.60;2.27;;;;;;;9.67;74.55;100584.27;1737080;81;22219;-88
2022/04/25 09:25:11;;;;;;;9.50;5.20;;;;;;;9.63;74.71;100586.32;1754440;80;21039;-89
2022/04/25 09:27:41;;;;;;;4.05;2.45;;;;;;;9.65;75.39;100579.39;1749035;80;21062;-89
2022/04/25 09:30:21;;;;;;;15.32;10.08;;;;;;;9.82;74.73;100579.83;1741765;80;21038;-89
2022/04/25 09:32:53;;;;;;;3.87;3.15;;;;;;;9.81;74.41;100578.91;1757649;79;21068;-88
2022/04/25 09:35:44;;;;;;;3.25;2.62;;;;;;;9.65;74.11;100580.27;1735596;80;21055;-90
2022/04/25 09:38:05;;;;;;;3.37;2.60;;;;;;;9.50;73.70;100582.50;1759811;79;20960;-89
2022/04/25 09:40:41;;;;;;;5.72;4.50;;;;;;;9.30;73.82;100591.15;1766400;79;21047;-89
2022/04/25 09:43:14;;;;;;;10.25;7.42;;;;;;;9.19;74.02;100589.53;1767936;80;20995;-89
2022/04/25 09:45:42;;;;;;;5.20;3.80;;;;;;;9.13;74.32;100592.00;1749239;80;21873;-89
2022/04/25 09:48:16;;;;;;;8.90;5.03;;;;;;;9.05;74.04;100587.84;1745488;80;21063;-89
2022/04/25 09:51:09;;;;;;;11.00;4.53;;;;;;;9.05;74.50;100586.53;1762195;80;21610;-88
2022/04/25 09:53:53;;;;;;;7.10;4.50;;;;;;;8.96;74.20;100588.89;1749741;80;21085;-89
2022/04/25 09:56:23;;;;;;;8.58;4.53;;;;;;;8.80;74.27;100597.15;1749603;79;21080;-89
2022/04/25 09:59:08;;;;;;;9.95;5.62;;;;;;;8.74;74.24;100598.73;1738168;79;21113;-88
2022/04/25 10:01:39;;;;;;;8.30;5.75;;;;;;;8.63;74.18;100605.39;1741441;80;21549;-89
2022/04/25 10:04:09;;;;;;;9.53;5.67;;;;;;;8.51;74.34;100610.28;1746008;80;21084;-89
2022/04/25 10:06:39;;;;;;;13.95;7.37;;;;;;;8.44;74.56;100617.06;1729612;80;21160;-89
2022/04/25 10:12:00;;;;;;;9.45;7.22;;;;;;;8.33;74.92;100611.47;1737855;80;21796;-90
2022/04/25 10:14:33;;;;;;;15.20;8.48;;;;;;;8.34;75.10;100612.34;1757804;80;21172;-89
2022/04/25 10:17:20;;;;;;;15.88;6.65;;;;;;;8.28;75.04;100618.28;1741126;80;21066;-88
2022/04/25 10:19:43;;;;;;;13.65;6.47;;;;;;;8.23;75.12;100626.42;1714819;80;21922;-88
2022/04/25 10:22:11;;;;;;;9.15;5.80;;;;;;;8.23;75.15;100618.98;1749062;80;21189;-89
2022/04/25 10:24:43;;;;;;;22.05;15.40;;;;;;;8.28;75.34;100613.47;1722102;80;21082;-88
2022/04/25 10:27:12;;;;;;;14.35;11.97;;;;;;;8.27;75.30;100616.49;1765210;80;21353;-89
2022/04/25 10:29:39;;;;;;;10.55;7.12;;;;;;;8.38;75.61;100614.22;1760502;80;21053;-90
2022/04/25 10:32:10;;;;;;;10.35;6.55;;;;;;;8.48;75.21;100618.05;1693538;82;21066;-89
2022/04/25 10:35:00;;;;;;;14.30;6.72;;;;;;;8.55;75.32;100627.89;1701640;83;20967;-89
2022/04/25 10:37:35;;;;;;;12.03;6.85;;;;;;;8.57;75.17;100620.96;1722926;82;22621;-90
2022/04/25 10:40:08;;;;;;;15.35;7.60;;;;;;;8.61;74.99;100625.45;1715385;82;21089;-89
2022/04/25 10:46:03;;;;;;;12.70;7.03;;;;;;;8.76;75.14;100631.59;1693020;82;21094;-89
2022/04/25 10:48:32;;;;;;;15.43;7.67;;;;;;;8.78;74.81;100630.34;1707722;82;21357;-90
2022/04/25 10:51:12;;;;;;;17.17;7.05;;;;;;;8.81;74.97;100631.32;1692436;81;21820;-90
2022/04/25 10:54:03;;;;;;;10.25;6.90;;;;;;;8.97;75.13;100627.83;1688780;84;21151;-90
2022/04/25 10:56:35;;;;;;;10.45;6.00;;;;;;;9.10;74.93;100638.77;1767702;80;21129;-89
2022/04/25 10:59:25;;;;;;;8.00;5.50;;;;;;;9.26;74.91;100633.51;1747253;80;27750;-90
2022/04/25 11:01:56;;;;;;;11.18;5.40;;;;;;;9.35;74.20;100635.52;1761704;80;21536;-87
2022/04/25 11:04:23;;;;;;;8.93;5.92;;;;;;;9.21;73.75;100643.42;1743885;80;21785;-89
2022/04/25 11:07:20;;;;;;;15.72;6.78;;;;;;;9.09;73.69;100642.65;1752432;80;21071;-88
2022/04/25 11:09:49;;;;;;;10.28;6.50;;;;;;;9.08;74.16;100644.36;1750042;79;21669;-89
2022/04/25 11:12:18;;;;;;;17.23;7.90;;;;;;;9.18;74.15;100648.57;1750546;80;21160;-89
2022/04/25 11:15:03;;;;;;;12.40;6.92;;;;;;;9.20;73.91;100651.73;1747458;80;21076;-89
2022/04/25 11:17:30;;;;;;;18.12;7.83;;;;;;;9.12;73.73;100647.97;1758548;80;21870;-89
2022/04/25 11:20:00;;;;;;;14.98;7.70;;;;;;;9.06;73.78;100647.36;1764433;80;21125;-89
2022/04/25 11:22:41;;;;;;;13.80;6.92;;;;;;;8.89;73.40;100655.17;1759584;80;21061;-89
2022/04/25 11:25:34;;;;;;;15.30;7.62;;;;;;;8.73;73.62;100663.89;1750673;80;21130;-89
2022/04/25 11:28:12;;;;;;;15.35;8.33;;;;;;;8.63;73.72;100677.98;1747652;80;21093;-89
2022/04/25 11:30:40;;;;;;;16.07;7.92;;;;;;;8.46;74.01;100670.45;1763715;80;21746;-88
2022/04/25 11:33:09;;;;;;;16.77;8.30;;;;;;;8.43;74.28;100672.09;1753539;80;21438;-89
2022/04/25 11:35:41;;;;;;;18.02;9.23;;;;;;;8.36;74.09;100679.73;1757174;80;21045;-88
2022/04/25 11:38:08;;;;;;;16.50;9.15;;;;;;;8.28;74.36;100677.72;1762043;79;20987;-89
2022/04/25 11:40:40;;;;;;;13.30;7.72;;;;;;;8.24;74.46;100680.66;1751817;80;20998;-89
2022/04/25 11:43:06;;;;;;;15.63;8.95;;;;;;;8.16;74.43;100686.05;1761558;80;22594;-89
2022/04/25 11:45:41;;;;;;;14.70;8.95;;;;;;;8.04;74.61;100693.08;1757652;80;21014;-89
2022/04/25 11:48:18;;;;;;;16.30;7.92;;;;;;;7.97;74.70;100697.64;1750378;80;21092;-88
2022/04/25 11:50:50;;;;;;;18.77;9.10;;;;;;;7.92;75.08;100690.02;1687080;83;21061;-89
2022/04/25 11:53:30;;;;;;;15.35;8.63;;;;;;;7.98;75.30;100692.88;1706327;82;21087;-89
2022/04/25 11:55:57;;;;;;;19.12;9.60;;;;;;;8.05;75.37;100697.50;1701165;81;21808;-89
2022/04/25 11:58:30;;;;;;;17.02;9.68;;;;;;;8.13;75.40;100703.00;1695116;81;21074;-89
2022/04/25 12:00:56;;;;;;;18.73;9.70;;;;;;;8.08;75.07;100702.83;1708642;81;21562;-89
2022/04/25 12:03:24;;;;;;;15.28;9.25;;;;;;;8.02;75.28;100704.37;1745191;80;21069;-88
2022/04/25 12:05:54;;;;;;;22.22;11.95;;;;;;;8.04;75.37;100704.00;1742214;80;21068;-89
2022/04/25 12:16:46;;;;;;;18.95;11.43;;;;;;;8.15;75.66;100707.87;1746121;80;21077;-89
2022/04/25 12:19:15;;;;;;;20.17;11.85;;;;;;;8.19;75.41;100718.94;1749153;80;21148;-88
2022/04/25 12:21:47;;;;;;;18.32;10.72;;;;;;;8.16;75.51;100713.58;1754198;80;21949;-89
2022/04/25 12:24:18;;;;;;;17.35;10.32;;;;;;;8.21;75.60;100718.99;1756981;80;21589;-88
2022/04/25 12:26:44;;;;;;;19.60;10.80;;;;;;;8.17;75.29;100717.56;1760402;80;21055;-88
2022/04/25 12:29:12;;;;;;;19.15;11.25;;;;;;;8.10;75.25;100722.55;1750278;80;21107;-88
2022/04/25 12:31:48;;;;;;;23.35;11.33;;;;;;;8.12;75.59;100727.42;1746164;80;22148;-88
2022/04/25 12:34:23;;;;;;;22.05;11.90;;;;;;;8.14;75.60;100724.00;1763140;80;21884;-88
2022/04/25 12:37:01;;;;;;;16.32;9.40;;;;;;;8.11;75.48;100732.21;1753523;80;21595;-88
2022/04/25 12:39:32;;;;;;;23.45;10.45;;;;;;;8.16;75.68;100729.30;1742507;80;21144;-88
2022/04/25 12:41:59;;;;;;;20.90;11.08;;;;;;;8.10;75.44;100733.92;1707793;83;21123;-89
2022/04/25 12:44:28;;;;;;;14.95;10.60;;;;;;;8.08;75.41;100730.78;1698115;82;21098;-88
2022/04/25 12:47:08;;;;;;;20.92;10.78;;;;;;;8.02;75.37;100731.89;1714915;82;22979;-89
2022/04/25 12:49:37;;;;;;;17.60;9.70;;;;;;;7.97;75.59;100734.33;1720936;81;21191;-89
2022/04/25 12:52:07;;;;;;;17.95;10.63;;;;;;;7.98;75.73;100738.75;1635155;83;21151;-89
2022/04/25 12:54:40;;;;;;;18.32;11.08;;;;;;;7.95;75.69;100739.94;1676586;83;21101;-89
2022/04/25 12:57:24;;;;;;;20.80;10.43;;;;;;;7.97;75.98;100732.59;1686137;83;21719;-88
2022/04/25 12:59:58;;;;;;;19.60;11.10;;;;;;;8.06;75.97;100737.28;1693668;82;22804;-88
2022/04/25 13:02:35;;;;;;;18.52;10.05;;;;;;;8.14;75.86;100741.47;1699625;83;21005;-89
2022/04/25 13:05:08;;;;;;;16.25;10.53;;;;;;;8.14;75.69;100743.66;1714476;82;21461;-89
2022/04/25 13:07:46;;;;;;;17.55;9.58;;;;;;;8.15;75.58;100740.22;1735697;82;21051;-89
2022/04/25 13:10:20;;;;;;;18.10;10.10;;;;;;;8.19;75.53;100745.16;1729785;82;21163;-89
2022/04/25 13:12:48;;;;;;;;;;;;;;;8.15;75.47;100753.33;1735774;81;22682;-89
2022/04/25 13:15:20;;;;;;;12.53;7.85;;;;;;;8.18;75.54;100749.52;1714691;82;21026;-89